Time;durP1;ratioP1;P1;durP2;ratioP2;P2;SDS_P1;SDS_P2;PMS_P1;PMS_P2;Temp;Humidity;BMP_temperature;BMP_pressure;BME280_temperature;BME280_humidity;BME280_pressure;Samples;Min_cycle;Max_cycle;Signal;HPM_P1;HPM_P2
2021/10/23 00:01:56;;;;;;;23.38;21.63;;;9.80;75.80;;;;;;5020553;28;20252;-70
2021/10/23 00:04:22;;;;;;;24.33;22.90;;;9.80;76.20;;;;;;5025501;28;20687;-70
2021/10/23 00:06:50;;;;;;;23.50;22.00;;;9.80;76.30;;;;;;5027179;28;20867;-69
2021/10/23 00:09:17;;;;;;;22.77;21.48;;;9.80;76.10;;;;;;5026379;28;20742;-71
2021/10/23 00:11:43;;;;;;;21.95;20.65;;;9.80;76.20;;;;;;5029052;28;20567;-70
2021/10/23 00:14:12;;;;;;;22.80;21.13;;;9.60;76.60;;;;;;5023157;28;20573;-71
2021/10/23 00:16:39;;;;;;;23.75;22.10;;;9.60;77.40;;;;;;5021516;28;20659;-71
2021/10/23 00:19:06;;;;;;;25.23;23.63;;;9.70;77.10;;;;;;5022378;28;20246;-70
2021/10/23 00:21:33;;;;;;;24.42;22.92;;;9.70;77.50;;;;;;5022598;28;21032;-70
2021/10/23 00:24:00;;;;;;;23.27;21.60;;;9.60;77.40;;;;;;5024496;28;20293;-70
2021/10/23 00:26:27;;;;;;;21.35;19.83;;;9.60;77.40;;;;;;5020977;28;20460;-70
2021/10/23 00:28:54;;;;;;;23.10;21.70;;;9.60;77.30;;;;;;5027223;28;20206;-70
2021/10/23 00:31:23;;;;;;;22.45;21.15;;;9.60;77.90;;;;;;5021967;28;20218;-70
2021/10/23 00:33:50;;;;;;;23.13;21.53;;;9.60;78.00;;;;;;5028544;28;20198;-71
2021/10/23 00:36:17;;;;;;;23.20;21.45;;;9.60;77.70;;;;;;5026906;28;20595;-70
2021/10/23 00:38:44;;;;;;;23.50;22.10;;;9.60;77.60;;;;;;5027141;28;20202;-70
2021/10/23 00:41:11;;;;;;;22.10;20.70;;;9.60;77.60;;;;;;5028243;28;20495;-70
2021/10/23 00:43:40;;;;;;;22.80;21.40;;;9.70;77.40;;;;;;5028904;28;20475;-71
2021/10/23 00:46:08;;;;;;;23.53;22.00;;;9.60;77.70;;;;;;5030994;28;20460;-70
2021/10/23 00:48:36;;;;;;;22.42;21.13;;;9.70;77.90;;;;;;5025574;28;20456;-70
2021/10/23 00:51:03;;;;;;;22.20;20.90;;;9.60;78.10;;;;;;5025811;28;20224;-72
2021/10/23 00:53:30;;;;;;;22.40;20.90;;;9.60;78.10;;;;;;5031299;28;20503;-70
2021/10/23 00:55:57;;;;;;;23.10;21.60;;;9.60;78.10;;;;;;5029163;28;20197;-70
2021/10/23 00:58:24;;;;;;;22.23;21.00;;;9.70;77.90;;;;;;5029870;28;20198;-70
2021/10/23 01:00:51;;;;;;;23.10;21.58;;;9.50;78.10;;;;;;5024091;28;20466;-70
2021/10/23 01:03:18;;;;;;;22.20;20.45;;;9.50;78.40;;;;;;5024982;28;20623;-71
2021/10/23 01:05:46;;;;;;;22.17;20.87;;;9.60;78.80;;;;;;5028992;28;20205;-70
2021/10/23 01:08:14;;;;;;;21.10;19.90;;;9.70;78.40;;;;;;5028414;28;20460;-70
2021/10/23 01:10:41;;;;;;;21.83;20.37;;;9.70;78.20;;;;;;5025031;28;20205;-70
2021/10/23 01:13:08;;;;;;;21.07;19.70;;;9.60;78.20;;;;;;5026515;28;21236;-70
2021/10/23 01:15:36;;;;;;;22.75;21.25;;;9.70;78.50;;;;;;5022927;28;20973;-71
2021/10/23 01:18:05;;;;;;;23.98;22.48;;;9.80;78.20;;;;;;5027193;28;20209;-70
2021/10/23 01:20:35;;;;;;;21.60;20.08;;;9.70;78.30;;;;;;5026403;28;20255;-70
2021/10/23 01:23:03;;;;;;;21.27;20.08;;;9.70;78.50;;;;;;5025389;28;20594;-70
2021/10/23 01:25:31;;;;;;;21.80;20.55;;;9.70;78.40;;;;;;5023012;28;20566;-71
2021/10/23 01:27:59;;;;;;;22.08;20.50;;;9.70;78.30;;;;;;5025411;28;20193;-71
2021/10/23 01:30:27;;;;;;;23.00;21.65;;;9.70;78.50;;;;;;5028127;28;20200;-70
2021/10/23 01:32:54;;;;;;;21.48;20.27;;;9.60;78.80;;;;;;5026541;28;20328;-70
2021/10/23 01:35:23;;;;;;;22.08;20.73;;;9.60;79.60;;;;;;5029544;28;20663;-70
2021/10/23 01:37:52;;;;;;;21.53;20.30;;;9.50;79.20;;;;;;5027048;28;20207;-70
2021/10/23 01:40:20;;;;;;;21.75;20.30;;;9.50;79.30;;;;;;5026835;28;20522;-70
2021/10/23 01:42:48;;;;;;;21.85;20.65;;;9.50;79.20;;;;;;5022231;28;20233;-70
2021/10/23 01:45:15;;;;;;;21.58;20.27;;;9.60;79.20;;;;;;5026558;28;20217;-74
2021/10/23 01:47:43;;;;;;;21.88;20.58;;;9.50;79.70;;;;;;5030438;28;20261;-71
2021/10/23 01:50:14;;;;;;;22.45;20.95;;;9.50;79.80;;;;;;5030674;28;20566;-72
2021/10/23 01:52:41;;;;;;;22.17;20.88;;;9.40;79.90;;;;;;5025967;28;20300;-72
2021/10/23 01:55:11;;;;;;;22.20;20.48;;;9.30;80.50;;;;;;5026317;28;20236;-71
2021/10/23 01:57:39;;;;;;;21.85;20.40;;;9.20;80.70;;;;;;5025913;28;20293;-72
2021/10/23 02:00:07;;;;;;;22.47;20.80;;;9.20;80.70;;;;;;5029465;28;20193;-72
2021/10/23 02:02:35;;;;;;;20.95;19.65;;;9.20;80.80;;;;;;5025178;28;20921;-71
2021/10/23 02:05:02;;;;;;;22.15;20.85;;;9.20;80.90;;;;;;5025087;28;20308;-72
2021/10/23 02:07:29;;;;;;;21.00;19.80;;;9.10;81.70;;;;;;5023628;28;20202;-72
2021/10/23 02:09:56;;;;;;;21.92;20.35;;;9.00;81.40;;;;;;5028108;28;20704;-72
2021/10/23 02:12:24;;;;;;;22.35;20.63;;;9.00;81.40;;;;;;5019288;28;20216;-71
2021/10/23 02:14:51;;;;;;;22.52;21.02;;;9.00;81.70;;;;;;5024458;28;20208;-72
2021/10/23 02:17:18;;;;;;;21.63;20.23;;;9.00;81.90;;;;;;5030382;28;20280;-73
2021/10/23 02:19:45;;;;;;;21.45;20.15;;;8.90;82.20;;;;;;5028046;28;20205;-72
2021/10/23 02:22:12;;;;;;;22.45;20.90;;;8.90;81.90;;;;;;5025484;28;20221;-71
2021/10/23 02:24:39;;;;;;;22.27;21.08;;;8.90;82.00;;;;;;5027232;28;20198;-72
2021/10/23 02:27:06;;;;;;;21.90;20.67;;;8.80;82.30;;;;;;5032084;28;20251;-72
2021/10/23 02:29:34;;;;;;;22.90;21.40;;;8.90;82.40;;;;;;5023063;28;20198;-72
2021/10/23 02:32:01;;;;;;;22.35;20.95;;;8.90;82.30;;;;;;5018067;28;20226;-72
2021/10/23 02:34:28;;;;;;;22.45;21.13;;;8.90;82.40;;;;;;5020401;28;20659;-72
2021/10/23 02:36:55;;;;;;;23.08;21.48;;;8.90;82.40;;;;;;5019101;28;20229;-71
2021/10/23 02:39:22;;;;;;;21.90;20.30;;;8.90;82.20;;;;;;5026578;28;20685;-72
2021/10/23 02:41:48;;;;;;;22.10;20.80;;;9.00;82.10;;;;;;5019389;28;20324;-73
2021/10/23 02:44:15;;;;;;;22.20;20.80;;;8.90;82.10;;;;;;5024346;28;20204;-72
2021/10/23 02:46:44;;;;;;;21.98;20.67;;;9.00;82.20;;;;;;5018410;28;20663;-72
2021/10/23 02:49:10;;;;;;;21.95;20.60;;;8.90;82.20;;;;;;5027542;28;20204;-70
2021/10/23 02:51:38;;;;;;;21.95;20.38;;;9.00;85.10;;;;;;5025108;28;20211;-71
2021/10/23 02:54:05;;;;;;;22.20;20.80;;;9.00;83.10;;;;;;5027654;28;20216;-71
2021/10/23 02:56:32;;;;;;;21.15;19.73;;;8.90;82.80;;;;;;5024784;28;20189;-71
2021/10/23 02:58:59;;;;;;;21.75;20.45;;;8.90;82.80;;;;;;5026004;28;20683;-70
2021/10/23 03:01:26;;;;;;;21.50;20.15;;;8.90;83.20;;;;;;5025030;28;20587;-70
2021/10/23 03:03:54;;;;;;;22.50;20.77;;;8.90;83.50;;;;;;5024279;28;20221;-71
2021/10/23 03:06:21;;;;;;;21.25;19.80;;;8.90;84.10;;;;;;5020421;28;20213;-71
2021/10/23 03:08:48;;;;;;;21.50;20.20;;;8.90;84.30;;;;;;5023416;28;20290;-70
2021/10/23 03:11:15;;;;;;;22.05;20.65;;;9.00;84.00;;;;;;5023569;28;20231;-70
2021/10/23 03:13:42;;;;;;;22.20;20.80;;;9.00;83.20;;;;;;5024959;28;20199;-70
2021/10/23 03:16:10;;;;;;;21.63;20.17;;;9.00;83.10;;;;;;5025268;28;20695;-70
2021/10/23 03:18:37;;;;;;;21.67;20.30;;;9.00;85.10;;;;;;5024990;28;20656;-70
2021/10/23 03:21:06;;;;;;;20.88;19.67;;;9.00;86.80;;;;;;5019060;28;20213;-70
2021/10/23 03:23:33;;;;;;;21.60;20.20;;;9.00;86.10;;;;;;5017735;28;20217;-70
2021/10/23 03:26:01;;;;;;;22.08;20.40;;;9.00;84.70;;;;;;5023402;28;21227;-70
2021/10/23 03:28:29;;;;;;;21.50;20.10;;;9.00;85.10;;;;;;5021614;28;20201;-70
2021/10/23 03:30:56;;;;;;;21.65;20.35;;;9.00;84.50;;;;;;5020890;28;20260;-70
2021/10/23 03:33:23;;;;;;;22.40;20.90;;;9.00;85.70;;;;;;5026728;28;20208;-70
2021/10/23 03:35:50;;;;;;;20.63;19.42;;;9.00;86.70;;;;;;5025563;28;20221;-70
2021/10/23 03:38:18;;;;;;;21.50;20.20;;;9.00;85.40;;;;;;5022602;28;20229;-71
2021/10/23 03:40:45;;;;;;;22.57;21.10;;;9.00;84.30;;;;;;5028740;28;20830;-70
2021/10/23 03:43:12;;;;;;;22.93;21.23;;;9.00;84.30;;;;;;5027180;28;20481;-70
2021/10/23 03:45:40;;;;;;;22.52;21.02;;;9.00;84.10;;;;;;5031498;28;20469;-70
2021/10/23 03:48:07;;;;;;;21.33;19.90;;;9.00;84.50;;;;;;5025799;28;20232;-70
2021/10/23 03:50:34;;;;;;;21.63;20.27;;;9.00;85.80;;;;;;5023057;28;20460;-70
2021/10/23 03:53:01;;;;;;;22.08;20.58;;;9.10;85.60;;;;;;5026018;28;20217;-70
2021/10/23 03:55:29;;;;;;;21.60;20.20;;;9.10;84.40;;;;;;5025058;28;20235;-70
2021/10/23 03:57:56;;;;;;;23.48;22.15;;;9.00;84.20;;;;;;5025611;28;20193;-70
2021/10/23 04:00:23;;;;;;;21.15;19.70;;;9.00;84.20;;;;;;5022888;28;20901;-70
2021/10/23 04:02:50;;;;;;;21.23;20.02;;;9.00;86.00;;;;;;5020596;28;20722;-70
2021/10/23 04:05:18;;;;;;;22.15;20.67;;;9.00;87.50;;;;;;5025758;28;20202;-70
2021/10/23 04:07:45;;;;;;;21.10;19.70;;;9.00;86.20;;;;;;5021326;28;20251;-70
2021/10/23 04:10:12;;;;;;;21.60;20.33;;;9.00;85.00;;;;;;5023274;28;20253;-72
2021/10/23 04:12:40;;;;;;;22.30;20.88;;;9.00;84.70;;;;;;5024528;28;20291;-72
2021/10/23 04:15:08;;;;;;;21.35;20.15;;;9.00;84.30;;;;;;5027212;28;20194;-72
2021/10/23 04:17:35;;;;;;;21.17;19.95;;;9.00;84.70;;;;;;5024586;28;20200;-71
2021/10/23 04:20:02;;;;;;;22.63;21.27;;;8.90;85.40;;;;;;5025222;28;20293;-72
2021/10/23 04:22:29;;;;;;;23.10;21.35;;;8.90;86.40;;;;;;5031842;28;20678;-72
2021/10/23 04:24:56;;;;;;;22.00;20.50;;;8.80;85.80;;;;;;5025526;28;20663;-72
2021/10/23 04:27:22;;;;;;;22.10;20.40;;;8.80;85.90;;;;;;5024872;28;20551;-72
2021/10/23 04:29:51;;;;;;;20.85;19.65;;;8.80;85.90;;;;;;5027245;28;20567;-72
2021/10/23 04:32:18;;;;;;;22.05;20.65;;;8.80;85.80;;;;;;5021517;28;20761;-72
2021/10/23 04:34:46;;;;;;;22.88;21.35;;;8.80;87.60;;;;;;5025986;28;20724;-72
2021/10/23 04:37:13;;;;;;;24.15;22.65;;;8.80;87.30;;;;;;5025498;28;20207;-73
2021/10/23 04:39:40;;;;;;;21.35;20.15;;;8.70;87.10;;;;;;5020773;28;20231;-74
2021/10/23 04:42:07;;;;;;;21.17;19.98;;;8.70;86.80;;;;;;5018851;28;20317;-72
2021/10/23 04:44:34;;;;;;;23.10;21.65;;;8.70;86.80;;;;;;5021139;28;20548;-72
2021/10/23 04:47:03;;;;;;;22.55;20.88;;;8.70;87.10;;;;;;5021475;28;20202;-72
2021/10/23 04:49:30;;;;;;;22.35;21.08;;;8.70;87.90;;;;;;5019886;28;20198;-72
2021/10/23 04:51:56;;;;;;;21.60;20.05;;;8.70;87.80;;;;;;5023133;28;20299;-72
2021/10/23 04:54:23;;;;;;;23.33;21.63;;;8.70;87.50;;;;;;5018581;28;20204;-72
2021/10/23 04:56:50;;;;;;;22.73;21.50;;;8.70;87.30;;;;;;5020295;28;20202;-72
2021/10/23 04:59:17;;;;;;;21.95;20.65;;;8.70;86.90;;;;;;5025946;28;20300;-72
2021/10/23 05:01:44;;;;;;;21.85;20.65;;;8.70;86.90;;;;;;5022635;28;20324;-72
2021/10/23 05:04:12;;;;;;;21.75;20.17;;;8.70;87.10;;;;;;5018538;28;20308;-72
2021/10/23 05:06:39;;;;;;;22.40;20.92;;;8.70;87.70;;;;;;5026969;28;20205;-72
2021/10/23 05:09:06;;;;;;;22.55;20.77;;;8.70;87.10;;;;;;5023902;28;20243;-72
2021/10/23 05:11:33;;;;;;;30.52;28.63;;;8.70;87.10;;;;;;5021887;28;20267;-73
2021/10/23 05:14:00;;;;;;;24.60;23.02;;;8.70;86.80;;;;;;5022642;28;20668;-72
2021/10/23 05:16:27;;;;;;;22.85;21.33;;;8.80;86.60;;;;;;5021712;28;20707;-72
2021/10/23 05:18:54;;;;;;;22.77;21.27;;;8.80;86.90;;;;;;5022842;28;20194;-72
2021/10/23 05:21:22;;;;;;;21.63;20.42;;;8.80;88.80;;;;;;5022209;28;20217;-72
2021/10/23 05:23:53;;;;;;;23.17;21.52;;;8.70;88.10;;;;;;5024821;28;20792;-72
2021/10/23 05:26:23;;;;;;;23.27;21.73;;;8.80;87.70;;;;;;5027849;28;20206;-72
2021/10/23 05:28:50;;;;;;;22.70;20.98;;;8.80;87.10;;;;;;5023684;28;20207;-72
2021/10/23 05:31:16;;;;;;;24.13;22.33;;;8.80;86.60;;;;;;5023689;28;20671;-72
2021/10/23 05:33:43;;;;;;;21.85;20.30;;;8.80;87.10;;;;;;5022632;28;20205;-72
2021/10/23 05:36:10;;;;;;;23.73;21.50;;;8.90;87.40;;;;;;5021508;28;20197;-72
2021/10/23 05:38:38;;;;;;;22.95;21.08;;;8.90;87.10;;;;;;5023863;28;20197;-72
2021/10/23 05:41:05;;;;;;;22.13;20.90;;;8.90;86.40;;;;;;5026796;28;21062;-70
2021/10/23 05:43:32;;;;;;;22.10;20.70;;;8.80;86.50;;;;;;5027599;28;20213;-70
2021/10/23 05:45:59;;;;;;;23.20;21.65;;;8.80;86.50;;;;;;5033754;28;20712;-70
2021/10/23 05:48:26;;;;;;;22.30;21.00;;;8.90;86.40;;;;;;5029412;28;20275;-70
2021/10/23 05:50:53;;;;;;;22.08;20.77;;;8.80;88.70;;;;;;5026474;28;20663;-70
2021/10/23 05:53:20;;;;;;;23.05;21.48;;;8.80;87.10;;;;;;5026398;28;20194;-70
2021/10/23 05:55:48;;;;;;;23.33;21.90;;;8.90;86.20;;;;;;5028951;28;20587;-70
2021/10/23 05:58:15;;;;;;;22.55;21.05;;;8.90;85.80;;;;;;5027209;28;20744;-72
2021/10/23 06:00:49;;;;;;;25.40;23.77;;;8.90;85.70;;;;;;5027132;28;20204;-69
2021/10/23 06:03:19;;;;;;;23.13;21.67;;;9.00;85.60;;;;;;5027410;28;20571;-70
2021/10/23 06:05:46;;;;;;;22.25;20.85;;;8.90;85.70;;;;;;5025687;28;20206;-70
2021/10/23 06:08:13;;;;;;;22.50;21.20;;;8.80;86.40;;;;;;5023248;28;20806;-70
2021/10/23 06:10:40;;;;;;;22.38;20.75;;;8.90;85.90;;;;;;5034970;28;21016;-70
2021/10/23 06:13:08;;;;;;;22.65;21.05;;;8.90;85.60;;;;;;5023690;28;20193;-70
2021/10/23 06:15:35;;;;;;;24.40;23.00;;;8.90;85.40;;;;;;5032157;28;20214;-71
2021/10/23 06:18:03;;;;;;;23.55;22.15;;;9.00;85.20;;;;;;5024515;28;20211;-70
2021/10/23 06:20:30;;;;;;;22.40;21.17;;;9.10;84.90;;;;;;5028663;28;20279;-70
2021/10/23 06:22:57;;;;;;;23.58;22.08;;;9.10;85.00;;;;;;5026458;28;20486;-70
2021/10/23 06:25:24;;;;;;;22.60;20.93;;;9.10;84.50;;;;;;5028051;28;20802;-70
2021/10/23 06:27:51;;;;;;;23.52;22.13;;;9.20;84.20;;;;;;5027673;28;20546;-70
2021/10/23 06:30:20;;;;;;;23.20;21.90;;;9.20;84.20;;;;;;5025430;28;20285;-71
2021/10/23 06:32:48;;;;;;;23.10;21.60;;;9.30;83.90;;;;;;5020467;28;20490;-70
2021/10/23 06:35:15;;;;;;;21.88;20.52;;;9.30;83.50;;;;;;5028096;28;20456;-70
2021/10/23 06:37:42;;;;;;;22.85;21.50;;;9.30;84.10;;;;;;5015804;28;20478;-70
2021/10/23 06:40:11;;;;;;;24.42;22.83;;;9.40;83.50;;;;;;5021636;28;20289;-70
2021/10/23 06:42:40;;;;;;;22.48;21.10;;;9.40;82.80;;;;;;5025504;28;20221;-72
2021/10/23 06:45:08;;;;;;;24.50;22.70;;;9.40;82.90;;;;;;5026031;28;20201;-73
2021/10/23 06:47:37;;;;;;;22.47;21.07;;;9.40;82.80;;;;;;5032316;28;20502;-73
2021/10/23 06:50:05;;;;;;;22.25;20.55;;;9.40;84.00;;;;;;5033914;28;20463;-72
2021/10/23 06:52:32;;;;;;;24.90;23.30;;;9.40;83.20;;;;;;5022024;28;20228;-72
2021/10/23 06:54:59;;;;;;;22.33;20.65;;;9.40;82.50;;;;;;5021021;28;20474;-71
2021/10/23 06:57:26;;;;;;;22.25;20.90;;;9.50;81.70;;;;;;5019277;28;20668;-72
2021/10/23 06:59:53;;;;;;;22.25;20.85;;;9.50;81.50;;;;;;5020372;28;20198;-73
2021/10/23 07:02:19;;;;;;;22.75;21.55;;;9.50;82.00;;;;;;5019528;28;20221;-70
2021/10/23 07:04:48;;;;;;;23.00;21.48;;;9.50;82.40;;;;;;5023881;28;20217;-70
2021/10/23 07:07:15;;;;;;;23.30;21.75;;;9.60;82.70;;;;;;5018220;28;20221;-70
2021/10/23 07:09:42;;;;;;;23.10;21.40;;;9.70;81.90;;;;;;5020718;28;20707;-71
2021/10/23 07:12:09;;;;;;;23.23;21.83;;;9.70;81.60;;;;;;5022589;28;20587;-73
2021/10/23 07:14:36;;;;;;;26.57;24.57;;;9.90;81.30;;;;;;5023717;28;20455;-71
2021/10/23 07:17:03;;;;;;;22.47;21.07;;;10.00;80.50;;;;;;5028120;28;20460;-71
2021/10/23 07:19:30;;;;;;;22.87;21.57;;;10.00;80.60;;;;;;5029820;28;20459;-71
2021/10/23 07:21:58;;;;;;;23.60;21.80;;;10.10;80.00;;;;;;5024199;28;20503;-71
2021/10/23 07:24:25;;;;;;;23.67;21.93;;;10.20;80.00;;;;;;5026156;28;20472;-71
2021/10/23 07:26:52;;;;;;;22.97;21.47;;;10.20;78.80;;;;;;5025990;28;20965;-73
2021/10/23 07:29:19;;;;;;;24.83;23.03;;;10.00;79.30;;;;;;5029204;28;20511;-73
2021/10/23 07:31:46;;;;;;;24.00;22.47;;;10.10;79.00;;;;;;5026837;28;20468;-73
2021/10/23 07:34:13;;;;;;;24.27;22.77;;;10.10;79.00;;;;;;5028896;28;20487;-75
2021/10/23 07:36:40;;;;;;;23.95;22.45;;;10.10;78.70;;;;;;5021636;28;20456;-73
2021/10/23 07:39:08;;;;;;;22.73;21.40;;;10.10;79.20;;;;;;5028011;28;20197;-73
2021/10/23 07:41:35;;;;;;;24.10;22.60;;;10.20;79.70;;;;;;5024403;28;20566;-74
2021/10/23 07:44:02;;;;;;;25.03;23.27;;;10.20;79.30;;;;;;5025740;28;20498;-75
2021/10/23 07:46:29;;;;;;;25.50;23.90;;;10.30;78.80;;;;;;5025193;28;20460;-75
2021/10/23 07:48:56;;;;;;;23.40;21.80;;;10.30;78.50;;;;;;5024243;28;20467;-73
2021/10/23 07:51:23;;;;;;;23.90;22.50;;;10.30;78.60;;;;;;5025824;28;20563;-72
2021/10/23 07:53:51;;;;;;;23.67;21.87;;;10.30;79.30;;;;;;5026431;28;20463;-71
2021/10/23 07:56:19;;;;;;;24.03;22.27;;;10.40;78.10;;;;;;5026489;28;20960;-70
2021/10/23 07:58:46;;;;;;;23.73;22.17;;;10.40;77.90;;;;;;5026964;28;20464;-71
2021/10/23 08:01:14;;;;;;;25.40;23.90;;;10.40;77.70;;;;;;5025522;28;20566;-71
2021/10/23 08:03:41;;;;;;;24.00;22.50;;;10.50;77.40;;;;;;5023552;28;21030;-71
2021/10/23 08:06:08;;;;;;;23.17;21.57;;;10.50;78.00;;;;;;5024361;28;20463;-72
2021/10/23 08:08:35;;;;;;;22.77;21.43;;;10.60;77.70;;;;;;5026212;28;20739;-71
2021/10/23 08:11:04;;;;;;;23.27;21.77;;;10.70;76.90;;;;;;5021291;28;20471;-72
2021/10/23 08:13:33;;;;;;;22.80;21.47;;;10.70;76.40;;;;;;5021195;28;20463;-71
2021/10/23 08:16:01;;;;;;;24.30;22.80;;;10.80;76.20;;;;;;5027613;28;20514;-71
2021/10/23 08:18:28;;;;;;;23.77;22.37;;;10.70;77.20;;;;;;5034839;28;20579;-71
2021/10/23 08:20:55;;;;;;;22.30;21.00;;;10.80;77.50;;;;;;5022992;28;20464;-71
2021/10/23 08:23:23;;;;;;;22.27;21.07;;;10.70;77.40;;;;;;5026037;28;20460;-71
2021/10/23 08:25:51;;;;;;;24.27;22.77;;;10.80;76.70;;;;;;5025602;28;20774;-71
2021/10/23 08:28:18;;;;;;;24.37;22.53;;;10.80;76.50;;;;;;5026689;28;20452;-71
2021/10/23 08:30:46;;;;;;;24.57;23.00;;;10.90;76.20;;;;;;5026263;28;20460;-71
2021/10/23 08:33:13;;;;;;;24.80;23.17;;;11.00;76.10;;;;;;5025875;28;20444;-71
2021/10/23 08:35:40;;;;;;;24.13;22.40;;;11.00;76.80;;;;;;5026813;28;20458;-71
2021/10/23 08:38:07;;;;;;;25.23;23.10;;;11.10;76.30;;;;;;5025445;28;20502;-71
2021/10/23 08:40:34;;;;;;;23.87;22.40;;;11.10;75.80;;;;;;5026268;28;20455;-71
2021/10/23 08:43:04;;;;;;;23.83;22.33;;;11.20;75.60;;;;;;5025051;28;20492;-72
2021/10/23 08:45:31;;;;;;;23.80;22.20;;;11.30;75.10;;;;;;5027348;28;21038;-71
2021/10/23 08:48:03;;;;;;;23.67;22.13;;;11.40;75.00;;;;;;5024987;28;20456;-71
2021/10/23 08:50:30;;;;;;;24.23;22.93;;;11.50;74.70;;;;;;5022938;28;20452;-71
2021/10/23 08:53:00;;;;;;;24.73;22.90;;;11.60;76.30;;;;;;5025557;28;20576;-71
2021/10/23 08:55:28;;;;;;;24.60;22.90;;;11.70;75.20;;;;;;5030875;28;20558;-71
2021/10/23 08:57:55;;;;;;;23.77;22.20;;;11.80;74.00;;;;;;5029109;28;20487;-71
2021/10/23 09:00:22;;;;;;;24.40;22.90;;;11.80;73.70;;;;;;5030234;28;20456;-71
2021/10/23 09:02:49;;;;;;;24.20;22.80;;;11.90;73.40;;;;;;5036097;28;20782;-71
2021/10/23 09:05:18;;;;;;;24.00;22.70;;;12.10;73.20;;;;;;5029937;28;20992;-70
2021/10/23 09:07:47;;;;;;;24.67;23.30;;;12.30;72.20;;;;;;5028183;28;20467;-70
2021/10/23 09:10:22;;;;;;;23.40;22.10;;;12.40;71.90;;;;;;5028860;28;20460;-69
2021/10/23 09:13:00;;;;;;;24.90;22.97;;;12.50;71.30;;;;;;5029596;28;21011;-70
2021/10/23 09:15:31;;;;;;;25.20;23.57;;;12.70;70.70;;;;;;5029099;28;20452;-70
2021/10/23 09:17:58;;;;;;;26.00;24.23;;;12.80;70.10;;;;;;5028687;28;20978;-71
2021/10/23 09:20:26;;;;;;;24.60;23.00;;;13.00;69.80;;;;;;5026468;28;20855;-69
2021/10/23 09:22:55;;;;;;;23.63;21.87;;;13.00;69.20;;;;;;5027347;28;20479;-69
2021/10/23 09:25:23;;;;;;;24.93;23.23;;;13.10;69.00;;;;;;5031261;28;21043;-69
2021/10/23 09:27:53;;;;;;;24.97;23.20;;;13.10;68.90;;;;;;5031213;28;20491;-68
2021/10/23 09:30:22;;;;;;;25.20;23.40;;;13.20;68.60;;;;;;5029213;28;20953;-69
2021/10/23 09:32:53;;;;;;;26.10;24.30;;;13.20;68.60;;;;;;5024799;28;20992;-68
2021/10/23 09:35:22;;;;;;;25.33;23.67;;;13.30;69.00;;;;;;5028048;28;20466;-69
2021/10/23 09:37:54;;;;;;;25.23;23.63;;;13.40;68.40;;;;;;5025172;28;20469;-69
2021/10/23 09:40:23;;;;;;;24.77;22.73;;;13.40;68.90;;;;;;5026831;28;20452;-69
2021/10/23 09:43:05;;;;;;;25.73;24.10;;;13.40;68.10;;;;;;5026642;28;20498;-69
2021/10/23 09:45:32;;;;;;;24.97;23.47;;;13.50;69.00;;;;;;5029565;28;21001;-69
2021/10/23 09:48:09;;;;;;;25.00;23.40;;;13.60;67.80;;;;;;5029579;28;20522;-69
2021/10/23 09:50:36;;;;;;;24.30;22.80;;;13.70;67.30;;;;;;5024345;28;20539;-69
2021/10/23 09:53:07;;;;;;;24.30;22.80;;;13.80;66.90;;;;;;5025424;28;21036;-69
2021/10/23 09:55:35;;;;;;;23.70;22.30;;;13.90;66.90;;;;;;5025813;28;20464;-69
2021/10/23 09:58:11;;;;;;;24.73;22.90;;;13.90;66.60;;;;;;5026115;28;20559;-69
2021/10/23 10:00:39;;;;;;;24.53;23.13;;;13.90;67.40;;;;;;5028910;28;20456;-69
2021/10/23 10:03:08;;;;;;;23.90;22.30;;;13.80;66.70;;;;;;5025415;28;20938;-69
2021/10/23 10:05:35;;;;;;;24.37;22.87;;;13.70;67.20;;;;;;5029463;28;20535;-69
2021/10/23 10:08:11;;;;;;;25.57;23.77;;;13.60;67.50;;;;;;5026927;28;20460;-70
2021/10/23 10:10:40;;;;;;;24.10;22.40;;;13.50;67.60;;;;;;5023540;28;20467;-70
2021/10/23 10:13:09;;;;;;;25.00;23.40;;;13.50;67.40;;;;;;5026283;28;20468;-69
2021/10/23 10:15:36;;;;;;;24.10;22.70;;;13.50;67.50;;;;;;5025797;28;20522;-69
2021/10/23 10:18:05;;;;;;;25.50;24.00;;;13.70;67.40;;;;;;5027223;28;20464;-69
2021/10/23 10:20:35;;;;;;;26.10;24.40;;;14.00;67.00;;;;;;5023055;28;20847;-69
2021/10/23 10:23:03;;;;;;;25.20;23.37;;;14.20;66.70;;;;;;5026328;28;20490;-70
2021/10/23 10:25:31;;;;;;;24.60;22.80;;;14.40;66.50;;;;;;5028845;28;20593;-70
2021/10/23 10:28:09;;;;;;;23.73;22.43;;;14.50;65.00;;;;;;5025224;28;20468;-69
2021/10/23 10:30:38;;;;;;;24.47;22.93;;;14.60;64.30;;;;;;5029158;28;20489;-69
2021/10/23 10:33:18;;;;;;;25.87;24.07;;;14.50;63.90;;;;;;5025085;28;20522;-69
2021/10/23 10:36:06;;;;;;;26.30;24.50;;;14.10;65.40;;;;;;5026391;28;20455;-71
2021/10/23 10:38:57;;;;;;;25.10;23.37;;;13.60;66.50;;;;;;5027578;28;20458;-71
2021/10/23 10:44:14;;;;;;;26.13;24.37;;;13.10;68.80;;;;;;5028495;28;20809;-71
2021/10/23 10:47:18;;;;;;;26.30;24.80;;;12.80;70.20;;;;;;5028368;28;20533;-70
2021/10/23 10:49:53;;;;;;;26.07;24.37;;;12.40;71.90;;;;;;5028096;28;20476;-71
2021/10/23 10:53:02;;;;;;;25.23;23.43;;;12.30;71.90;;;;;;5020638;28;20593;-70
2021/10/23 10:55:39;;;;;;;26.10;24.30;;;12.40;71.40;;;;;;5027842;28;20556;-71
2021/10/23 10:58:09;;;;;;;26.20;24.60;;;12.60;71.10;;;;;;5031947;28;20456;-73
2021/10/23 11:01:13;;;;;;;25.97;24.33;;;12.70;71.20;;;;;;5022701;28;20531;-73
2021/10/23 11:03:45;;;;;;;26.47;24.83;;;12.90;70.40;;;;;;5032579;28;20825;-71
2021/10/23 11:07:01;;;;;;;25.87;24.00;;;12.80;70.90;;;;;;5024250;28;20532;-70
2021/10/23 11:09:43;;;;;;;24.60;23.10;;;13.00;69.70;;;;;;5028185;28;20456;-71
2021/10/23 11:12:28;;;;;;;24.70;23.00;;;13.10;68.30;;;;;;5018502;28;20580;-71
2021/10/23 11:14:58;;;;;;;26.17;24.47;;;13.20;68.00;;;;;;5023322;28;20459;-71
2021/10/23 11:17:25;;;;;;;25.30;23.70;;;13.40;67.60;;;;;;5023615;28;20558;-72
2021/10/23 11:19:55;;;;;;;25.73;24.07;;;13.60;66.20;;;;;;5026479;28;20466;-71
2021/10/23 11:22:25;;;;;;;24.93;23.20;;;13.80;64.70;;;;;;5016232;28;20532;-71
2021/10/23 11:24:55;;;;;;;25.60;24.00;;;14.00;63.60;;;;;;5024983;28;20493;-71
2021/10/23 11:27:31;;;;;;;27.40;25.60;;;13.90;64.80;;;;;;5026587;28;20478;-70
2021/10/23 11:30:21;;;;;;;24.93;23.47;;;13.90;64.80;;;;;;5025973;28;20456;-71
2021/10/23 11:32:56;;;;;;;27.90;26.13;;;13.90;65.20;;;;;;5031065;28;20566;-72
2021/10/23 11:35:35;;;;;;;25.50;24.10;;;14.00;64.70;;;;;;5026763;28;20447;-72
2021/10/23 11:38:09;;;;;;;24.70;23.20;;;14.20;63.70;;;;;;5026535;28;20929;-72
2021/10/23 11:40:38;;;;;;;28.63;26.43;;;14.00;62.90;;;;;;5025247;28;20563;-72
2021/10/23 11:43:05;;;;;;;24.87;23.50;;;14.10;63.30;;;;;;5025600;28;20480;-71
2021/10/23 11:45:34;;;;;;;25.83;24.23;;;14.00;62.90;;;;;;5033972;28;20905;-71
2021/10/23 11:48:05;;;;;;;26.13;24.73;;;14.20;63.30;;;;;;5027209;28;20547;-72
2021/10/23 11:50:34;;;;;;;24.27;22.87;;;14.20;62.60;;;;;;5022074;28;20973;-71
2021/10/23 11:53:03;;;;;;;25.70;24.10;;;14.20;62.50;;;;;;5023609;28;20583;-73
2021/10/23 11:55:32;;;;;;;24.50;22.90;;;14.40;62.30;;;;;;5028162;28;20834;-74
2021/10/23 11:58:01;;;;;;;25.80;24.33;;;14.40;58.60;;;;;;5026047;28;20456;-74
2021/10/23 12:00:30;;;;;;;25.37;23.93;;;14.30;59.10;;;;;;5028733;28;20542;-74
2021/10/23 12:03:01;;;;;;;24.40;23.10;;;14.20;59.30;;;;;;5024907;28;20907;-73
2021/10/23 12:05:36;;;;;;;24.87;23.17;;;14.30;58.90;;;;;;5027048;28;20482;-74
2021/10/23 12:08:21;;;;;;;26.47;24.43;;;14.50;58.20;;;;;;5024721;28;20869;-74
2021/10/23 12:11:05;;;;;;;26.20;24.57;;;14.60;57.40;;;;;;5026716;28;20454;-75
2021/10/23 12:14:05;;;;;;;24.70;23.30;;;14.90;57.20;;;;;;5026169;28;20468;-72
2021/10/23 12:16:40;;;;;;;26.10;24.60;;;15.10;57.50;;;;;;5021500;28;20551;-72
2021/10/23 12:19:16;;;;;;;25.20;23.70;;;15.40;57.30;;;;;;5027136;28;20457;-72
2021/10/23 12:21:52;;;;;;;25.00;23.53;;;15.30;56.20;;;;;;5031450;28;20488;-72
2021/10/23 12:24:22;;;;;;;27.27;25.83;;;15.10;56.70;;;;;;5025482;28;20612;-72
2021/10/23 12:27:21;;;;;;;25.53;24.00;;;14.70;56.90;;;;;;5019562;28;20480;-72
2021/10/23 12:29:51;;;;;;;25.70;24.10;;;14.30;58.20;;;;;;5019421;28;20451;-72
2021/10/23 12:32:19;;;;;;;24.70;23.47;;;14.60;56.30;;;;;;5031683;28;20985;-72
2021/10/23 12:35:02;;;;;;;24.10;22.70;;;14.50;56.60;;;;;;5032795;28;20455;-72
2021/10/23 12:37:52;;;;;;;24.47;23.10;;;14.40;56.30;;;;;;5027863;28;20463;-71
2021/10/23 12:40:24;;;;;;;25.10;23.60;;;14.10;57.00;;;;;;5030862;28;20534;-71
2021/10/23 12:42:56;;;;;;;26.13;24.30;;;14.10;57.20;;;;;;5032384;28;20799;-71
2021/10/23 12:45:25;;;;;;;24.30;22.83;;;14.40;56.80;;;;;;5026098;28;20483;-72
2021/10/23 12:47:54;;;;;;;25.93;24.30;;;14.40;56.30;;;;;;5030034;28;20460;-71